Airport ICAO


21:55 UTC

11°C

Overcast


An affordable passengers' Moving Map for your aircraft. Made for the iPad and the iPhone
More information here

LFLY Bron


Lyon FRANCE   VFR


METAR LFLY 132130Z AUTO VRB01KT 7000 OVC027 11/09 Q1030 BECMG 3000 BR 0h25min

TAF LFLY 131700Z 1318/1418 36004KT 9999 OVC035 BECMG 1318/1321 VRB02KT 6000 SCT030 BECMG 1321/1323 3000 BR BECMG 1400/1402 0800 FG OVC002 PROB40 TEMPO 1402/1409 0400 FG VV/// BECMG 1409/1411 6000 BKN008 BECMG 1411/1413 8000 SCT015 4h55min





NOTAMS

OPEN